createdAt,value
2022-11-05T00:00:14.135Z,99.90
2022-11-05T00:04:34.906Z,99.90
2022-11-05T00:08:56.940Z,99.90
2022-11-05T00:13:18.668Z,99.90
2022-11-05T00:17:20.495Z,99.10
2022-11-05T00:21:40.767Z,97.00
2022-11-05T00:25:42.581Z,98.00
2022-11-05T00:29:44.460Z,98.80
2022-11-05T00:33:46.256Z,98.30
2022-11-05T00:37:50.223Z,99.00
2022-11-05T00:42:10.884Z,99.40
2022-11-05T00:46:12.874Z,99.60
2022-11-05T00:50:15.150Z,99.30
2022-11-05T00:54:17.072Z,99.50
2022-11-05T00:58:21.360Z,99.90
2022-11-05T01:02:23.267Z,98.90
2022-11-05T01:06:25.251Z,99.10
2022-11-05T01:10:27.997Z,98.80
2022-11-05T01:14:29.859Z,98.50
2022-11-05T01:18:31.701Z,98.40
2022-11-05T01:22:33.561Z,99.10
2022-11-05T01:26:35.353Z,99.40
2022-11-05T01:30:37.523Z,99.40
2022-11-05T01:34:39.345Z,99.30
2022-11-05T01:38:41.588Z,98.30
2022-11-05T01:42:43.686Z,97.90
2022-11-05T01:46:46.649Z,98.10
2022-11-05T01:51:00.829Z,98.70
2022-11-05T01:55:04.438Z,98.30
2022-11-05T01:59:11.834Z,98.30
2022-11-05T02:03:16.700Z,98.50
2022-11-05T02:07:18.739Z,98.20
2022-11-05T02:11:20.826Z,98.40
2022-11-05T02:15:34.070Z,98.30
2022-11-05T02:20:13.016Z,98.70
2022-11-05T02:24:48.278Z,99.00
2022-11-05T02:29:08.676Z,99.40
2022-11-05T02:33:30.907Z,99.00
2022-11-05T02:37:52.513Z,99.70
2022-11-05T02:42:10.864Z,99.10
2022-11-05T02:46:26.698Z,98.50
2022-11-05T02:50:39.254Z,98.30
2022-11-05T02:55:15.675Z,98.10
2022-11-05T02:59:17.627Z,98.30
2022-11-05T03:03:34.901Z,98.20
2022-11-05T03:07:51.505Z,98.80
2022-11-05T03:12:14.305Z,98.10
2022-11-05T03:16:22.293Z,97.70
2022-11-05T03:20:31.550Z,97.30
2022-11-05T03:24:37.790Z,97.40
2022-11-05T03:28:43.072Z,98.20
2022-11-05T03:32:53.592Z,97.90
2022-11-05T03:36:58.066Z,97.10
2022-11-05T03:41:03.951Z,97.40
2022-11-05T03:45:15.685Z,97.00
2022-11-05T03:49:26.796Z,96.70
2022-11-05T03:53:32.481Z,96.70
2022-11-05T03:57:40.128Z,96.40
2022-11-05T04:01:42.434Z,96.60
2022-11-05T04:06:04.655Z,96.20
2022-11-05T04:10:25.491Z,96.80
2022-11-05T04:14:27.361Z,97.20
2022-11-05T04:18:29.186Z,97.30
2022-11-05T04:22:51.824Z,97.10
2022-11-05T04:26:53.658Z,96.70
2022-11-05T04:30:55.492Z,96.70
2022-11-05T04:34:57.428Z,97.20
2022-11-05T04:38:59.316Z,96.80
2022-11-05T04:43:01.574Z,96.40
2022-11-05T04:47:03.449Z,96.50
2022-11-05T04:51:05.782Z,96.50
2022-11-05T04:55:08.126Z,96.60
2022-11-05T04:59:09.948Z,96.90
2022-11-05T05:03:12.136Z,97.00
2022-11-05T05:07:14.255Z,96.80
2022-11-05T05:11:18.268Z,97.00
2022-11-05T05:15:20.157Z,98.10
2022-11-05T05:19:23.889Z,98.30
2022-11-05T05:23:25.759Z,99.00
2022-11-05T05:27:31.967Z,98.30
2022-11-05T05:31:34.612Z,97.90
2022-11-05T05:35:36.449Z,98.10
2022-11-05T05:39:38.311Z,97.50
2022-11-05T05:43:40.298Z,97.50
2022-11-05T05:47:42.128Z,97.40
2022-11-05T05:51:43.955Z,97.00
2022-11-05T05:55:45.779Z,97.20
2022-11-05T05:59:47.640Z,96.70
2022-11-05T06:03:49.948Z,96.80
2022-11-05T06:07:58.875Z,98.40
2022-11-05T06:12:00.709Z,98.50
2022-11-05T06:16:08.145Z,99.30
2022-11-05T06:20:10.859Z,99.90
2022-11-05T06:24:12.736Z,99.50
2022-11-05T06:28:14.564Z,98.80
2022-11-05T06:32:16.440Z,99.30
2022-11-05T06:36:19.620Z,99.20
2022-11-05T06:40:21.453Z,98.40
2022-11-05T06:44:23.279Z,97.80
2022-11-05T06:48:25.659Z,98.40
2022-11-05T06:52:31.191Z,98.70
2022-11-05T06:56:33.025Z,98.90
2022-11-05T07:00:35.007Z,98.40
2022-11-05T07:04:37.342Z,98.00
2022-11-05T07:08:39.163Z,98.10
2022-11-05T07:12:41.058Z,98.10
2022-11-05T07:16:42.957Z,97.90
2022-11-05T07:20:44.878Z,98.20
2022-11-05T07:24:47.415Z,97.60
2022-11-05T07:28:49.243Z,97.30
2022-11-05T07:32:51.082Z,97.40
2022-11-05T07:36:52.931Z,96.90
2022-11-05T07:40:54.863Z,96.50
2022-11-05T07:44:56.729Z,96.40
2022-11-05T07:48:58.577Z,96.10
2022-11-05T07:53:05.478Z,96.50
2022-11-05T07:57:07.421Z,97.40
2022-11-05T08:01:09.679Z,97.80
2022-11-05T08:05:11.711Z,98.60
2022-11-05T08:09:13.621Z,99.10
2022-11-05T08:13:16.216Z,98.90
2022-11-05T08:17:18.661Z,98.40
2022-11-05T08:21:20.553Z,97.40
2022-11-05T08:25:22.648Z,98.20
2022-11-05T08:29:24.490Z,98.00
2022-11-05T08:33:26.484Z,97.90
2022-11-05T08:37:28.501Z,97.20
2022-11-05T08:41:30.383Z,97.00
2022-11-05T08:45:32.373Z,96.80
2022-11-05T08:49:34.282Z,96.70
2022-11-05T08:53:36.520Z,96.10
2022-11-05T08:57:38.415Z,96.80
2022-11-05T09:01:40.413Z,95.90
2022-11-05T09:05:43.067Z,95.40
2022-11-05T09:09:45.002Z,95.80
2022-11-05T09:13:46.873Z,95.40
2022-11-05T09:17:48.710Z,95.60
2022-11-05T09:21:50.570Z,95.10
2022-11-05T09:25:52.473Z,95.00
2022-11-05T09:29:54.292Z,95.40
2022-11-05T09:33:56.131Z,95.50
2022-11-05T09:38:00.911Z,95.80
2022-11-05T09:42:07.476Z,96.00
2022-11-05T09:46:19.222Z,95.30
2022-11-05T09:50:30.643Z,95.70
2022-11-05T09:54:33.279Z,94.80
2022-11-05T09:58:43.755Z,94.60
2022-11-05T10:03:13.783Z,94.50
2022-11-05T10:07:20.261Z,94.80
2022-11-05T10:11:56.138Z,94.70
2022-11-05T10:16:25.514Z,95.10
2022-11-05T10:20:38.966Z,95.40
2022-11-05T10:24:44.758Z,95.50
2022-11-05T10:28:47.353Z,95.10
2022-11-05T10:32:52.136Z,95.90
2022-11-05T10:36:54.457Z,95.70
2022-11-05T10:41:06.824Z,95.80
2022-11-05T10:45:42.714Z,95.20
2022-11-05T10:50:04.449Z,94.10
2022-11-05T10:54:20.729Z,94.70
2022-11-05T10:58:28.964Z,95.40
2022-11-05T11:02:30.927Z,95.40
2022-11-05T11:06:37.879Z,94.60
2022-11-05T11:10:48.813Z,95.10
2022-11-05T11:15:01.926Z,94.30
2022-11-05T11:19:20.760Z,94.00
2022-11-05T11:23:22.599Z,94.90
2022-11-05T11:27:31.837Z,94.40
2022-11-05T11:31:38.400Z,94.70
2022-11-05T11:35:46.404Z,94.30
2022-11-05T11:40:05.564Z,95.00
2022-11-05T11:44:27.041Z,94.90
2022-11-05T11:48:30.266Z,94.30
2022-11-05T11:52:36.904Z,94.60
2022-11-05T11:56:46.694Z,94.40
2022-11-05T12:00:58.825Z,95.30
2022-11-05T12:05:15.750Z,95.40
2022-11-05T12:09:29.156Z,96.80
2022-11-05T12:13:49.071Z,97.10
2022-11-05T12:17:59.869Z,97.30
2022-11-05T12:22:46.125Z,97.20
2022-11-05T12:26:55.433Z,96.50
2022-11-05T12:31:06.195Z,96.70
2022-11-05T12:35:14.072Z,96.90
2022-11-05T12:39:25.110Z,96.50
2022-11-05T12:43:56.207Z,96.30
2022-11-05T12:48:26.934Z,96.00
2022-11-05T12:52:49.244Z,96.60
2022-11-05T12:56:58.909Z,96.60
2022-11-05T13:01:16.084Z,96.90
2022-11-05T13:05:38.576Z,95.30
2022-11-05T13:09:50.485Z,95.40
2022-11-05T13:13:58.446Z,96.00
2022-11-05T13:18:05.436Z,96.20
2022-11-05T13:22:16.359Z,96.70
2022-11-05T13:26:26.883Z,97.10
2022-11-05T13:30:39.598Z,97.40
2022-11-05T13:34:41.469Z,96.90
2022-11-05T13:38:59.304Z,97.40
2022-11-05T13:43:25.231Z,97.40
2022-11-05T13:47:51.774Z,97.80
2022-11-05T13:51:58.018Z,96.70
2022-11-05T13:56:33.794Z,96.20
2022-11-05T14:01:23.152Z,95.20
2022-11-05T14:05:34.735Z,95.20
2022-11-05T14:09:38.183Z,95.60
2022-11-05T14:13:43.681Z,95.80
2022-11-05T14:18:18.481Z,95.90
2022-11-05T14:22:32.529Z,96.20
2022-11-05T14:26:34.846Z,96.20
2022-11-05T14:30:47.208Z,95.70
2022-11-05T14:35:04.113Z,95.90
2022-11-05T14:39:28.205Z,96.50
2022-11-05T14:43:33.900Z,95.70
2022-11-05T14:47:43.134Z,95.80
2022-11-05T14:51:49.097Z,95.90
2022-11-05T14:56:07.089Z,96.50
2022-11-05T15:00:36.701Z,96.30
2022-11-05T15:04:45.566Z,96.50
2022-11-05T15:08:50.461Z,97.00
2022-11-05T15:12:56.588Z,97.60
2022-11-05T15:17:30.986Z,97.30
2022-11-05T15:21:36.420Z,98.00
2022-11-05T15:25:53.188Z,97.70
2022-11-05T15:29:55.526Z,98.00
2022-11-05T15:34:20.090Z,98.20
2022-11-05T15:38:34.174Z,98.10
2022-11-05T15:42:36.012Z,98.50
2022-11-05T15:46:37.861Z,99.10
2022-11-05T15:50:39.929Z,99.10
2022-11-05T15:54:42.984Z,99.50
2022-11-05T15:58:50.343Z,99.50
2022-11-05T16:03:21.900Z,99.60
2022-11-05T16:07:24.322Z,99.90
2022-11-05T16:11:26.850Z,99.90
2022-11-05T16:15:32.854Z,99.90
2022-11-05T16:19:41.848Z,99.90
2022-11-05T16:23:48.101Z,99.90
2022-11-05T16:27:50.023Z,99.90
2022-11-05T16:31:54.034Z,99.90
2022-11-05T16:35:55.885Z,99.90
2022-11-05T16:39:57.804Z,99.90
2022-11-05T16:44:00.414Z,99.90
2022-11-05T16:48:02.265Z,99.90
2022-11-05T16:52:08.892Z,99.80
2022-11-05T16:56:23.522Z,99.90
2022-11-05T17:00:26.410Z,99.90
2022-11-05T17:04:28.260Z,99.90
2022-11-05T17:08:30.125Z,99.90
2022-11-05T17:12:31.978Z,99.70
2022-11-05T17:16:33.941Z,99.60
2022-11-05T17:20:40.995Z,99.90
2022-11-05T17:24:43.174Z,99.90
2022-11-05T17:28:45.026Z,99.80
2022-11-05T17:32:46.998Z,99.80
2022-11-05T17:36:48.848Z,99.90
2022-11-05T17:40:51.349Z,99.70
2022-11-05T17:44:53.195Z,99.90
2022-11-05T17:48:55.242Z,99.70
2022-11-05T17:52:57.177Z,99.40
2022-11-05T17:56:59.007Z,98.70
2022-11-05T18:01:00.980Z,99.00
2022-11-05T18:05:02.844Z,99.10
2022-11-05T18:09:06.261Z,99.80
2022-11-05T18:13:08.403Z,99.30
2022-11-05T18:17:10.286Z,99.50
2022-11-05T18:21:12.108Z,99.70
2022-11-05T18:25:14.131Z,99.90
2022-11-05T18:29:16.146Z,99.90
2022-11-05T18:33:18.031Z,99.90
2022-11-05T18:37:19.887Z,99.90
2022-11-05T18:41:21.974Z,99.90
2022-11-05T18:45:29.399Z,99.90
2022-11-05T18:49:31.642Z,99.90
2022-11-05T18:53:33.533Z,99.90
2022-11-05T18:57:35.451Z,99.90
2022-11-05T19:01:37.350Z,99.90
2022-11-05T19:05:39.264Z,99.90
2022-11-05T19:09:41.159Z,99.90
2022-11-05T19:13:43.635Z,99.90
2022-11-05T19:17:45.900Z,99.90
2022-11-05T19:21:47.763Z,99.90
2022-11-05T19:25:49.606Z,99.90
2022-11-05T19:29:51.704Z,99.90
2022-11-05T19:33:54.401Z,99.90
2022-11-05T19:37:56.250Z,99.90
2022-11-05T19:42:03.664Z,99.90
2022-11-05T19:46:11.054Z,99.90
2022-11-05T19:50:13.022Z,99.90
2022-11-05T19:54:15.260Z,99.90
2022-11-05T19:58:17.302Z,99.90
2022-11-05T20:02:19.263Z,99.70
2022-11-05T20:06:24.158Z,99.60
2022-11-05T20:10:26.072Z,99.40
2022-11-05T20:14:27.982Z,99.90
2022-11-05T20:18:30.005Z,99.90
2022-11-05T20:22:31.865Z,99.80
2022-11-05T20:26:34.309Z,99.70
2022-11-05T20:30:38.214Z,99.90
2022-11-05T20:34:40.639Z,99.90
2022-11-05T20:38:43.284Z,99.90
2022-11-05T20:42:45.103Z,99.90
2022-11-05T20:46:46.933Z,99.90
2022-11-05T20:50:48.916Z,99.90
2022-11-05T20:54:50.783Z,99.90
2022-11-05T20:58:53.309Z,99.90
2022-11-05T21:02:55.220Z,99.90
2022-11-05T21:06:57.255Z,99.90
2022-11-05T21:10:59.478Z,99.90
2022-11-05T21:15:01.342Z,99.90
2022-11-05T21:19:03.169Z,99.90
2022-11-05T21:23:05.447Z,99.90
2022-11-05T21:27:07.246Z,99.90
2022-11-05T21:31:10.118Z,99.90
2022-11-05T21:35:12.012Z,99.90
2022-11-05T21:39:14.144Z,99.90
2022-11-05T21:43:16.803Z,99.90
2022-11-05T21:47:18.658Z,99.90
2022-11-05T21:51:39.123Z,99.90
2022-11-05T21:56:00.031Z,99.90
2022-11-05T22:00:04.237Z,99.90
2022-11-05T22:04:06.049Z,99.90
2022-11-05T22:08:07.975Z,99.90
2022-11-05T22:12:10.391Z,99.20
2022-11-05T22:16:12.289Z,99.40
2022-11-05T22:20:14.555Z,99.20
2022-11-05T22:24:16.770Z,99.60
2022-11-05T22:28:18.606Z,99.90
2022-11-05T22:32:20.480Z,99.90
2022-11-05T22:36:22.366Z,99.90
2022-11-05T22:40:24.341Z,99.90
2022-11-05T22:44:27.739Z,99.90
2022-11-05T22:48:29.634Z,99.90
2022-11-05T22:52:32.795Z,99.90
2022-11-05T22:56:38.485Z,99.80
2022-11-05T23:00:40.290Z,99.90
2022-11-05T23:04:42.149Z,99.90
2022-11-05T23:09:02.744Z,99.70
2022-11-05T23:13:04.710Z,99.20
2022-11-05T23:17:25.142Z,99.50
2022-11-05T23:21:45.699Z,99.50
2022-11-05T23:25:47.581Z,99.40
2022-11-05T23:29:49.469Z,99.80
2022-11-05T23:33:51.306Z,99.90
2022-11-05T23:38:12.241Z,99.40
2022-11-05T23:42:32.854Z,99.50
2022-11-05T23:46:53.596Z,99.00
2022-11-05T23:51:08.519Z,98.60
2022-11-05T23:55:10.595Z,98.70
2022-11-05T23:59:12.418Z,99.10
